createdAt,value
2018-03-28T02:35:33.986Z,100.00
2018-03-28T02:38:04.255Z,100.00
2018-03-28T02:40:34.220Z,100.00
2018-03-28T02:43:04.233Z,100.00
2018-03-28T02:45:34.341Z,100.00
2018-03-28T02:48:04.510Z,100.00
2018-03-28T02:50:34.801Z,100.00
2018-03-28T02:53:04.802Z,100.00
2018-03-28T02:55:34.776Z,100.00
2018-03-28T02:58:04.870Z,100.00
2018-03-28T03:00:34.816Z,100.00
2018-03-28T03:03:04.781Z,100.00
2018-03-28T03:05:34.777Z,100.00
2018-03-28T03:08:04.841Z,100.00
2018-03-28T03:10:34.832Z,100.00
2018-03-28T03:13:04.922Z,100.00
2018-03-28T03:15:34.940Z,100.00
2018-03-28T03:18:05.332Z,100.00
2018-03-28T03:20:35.308Z,100.00
2018-03-28T03:23:05.309Z,100.00
2018-03-28T03:25:35.610Z,100.00
2018-03-28T03:28:05.625Z,100.00
2018-03-28T03:30:35.760Z,100.00
2018-03-28T03:33:05.759Z,100.00
2018-03-28T03:35:36.251Z,100.00
2018-03-28T03:38:06.270Z,100.00
2018-03-28T03:40:36.373Z,100.00
2018-03-28T03:43:06.711Z,100.00
2018-03-28T03:45:36.814Z,100.00
2018-03-28T03:50:40.807Z,100.00
2018-03-28T03:53:10.931Z,100.00
2018-03-28T03:55:41.043Z,100.00
2018-03-28T03:58:11.122Z,100.00
2018-03-28T04:00:41.310Z,100.00
2018-03-28T04:03:15.049Z,100.00
2018-03-28T04:05:46.696Z,100.00
2018-03-28T04:08:17.997Z,100.00
2018-03-28T04:10:48.442Z,100.00
2018-03-28T04:13:18.423Z,100.00
2018-03-28T04:15:48.501Z,100.00
2018-03-28T04:18:18.542Z,100.00
2018-03-28T04:20:48.685Z,100.00
2018-03-28T04:23:18.790Z,100.00
2018-03-28T04:25:48.975Z,100.00
2018-03-28T04:28:19.028Z,100.00
2018-03-28T04:30:49.156Z,100.00
2018-03-28T04:33:20.498Z,100.00
2018-03-28T04:35:50.661Z,100.00
2018-03-28T04:38:20.660Z,100.00
2018-03-28T04:40:50.665Z,100.00
2018-03-28T04:43:23.577Z,100.00
2018-03-28T04:45:56.906Z,100.00
2018-03-28T04:48:30.340Z,100.00
2018-03-28T04:51:00.429Z,100.00
2018-03-28T04:53:30.343Z,100.00
2018-03-28T04:56:01.018Z,100.00
2018-03-28T04:58:31.163Z,100.00
2018-03-28T05:01:01.952Z,100.00
2018-03-28T05:03:32.025Z,100.00
2018-03-28T05:06:06.570Z,100.00
2018-03-28T11:52:23.657Z,55.12
2018-03-28T11:58:56.009Z,63.62
2018-03-28T12:01:33.778Z,62.22
2018-03-28T12:04:04.006Z,57.80
2018-03-28T12:06:34.850Z,57.94
2018-03-28T12:09:04.737Z,60.17
2018-03-28T12:26:26.172Z,63.82
2018-03-28T12:40:36.371Z,61.43
2018-03-28T12:43:33.787Z,62.05
2018-03-28T12:56:07.095Z,50.82
2018-03-28T13:19:49.458Z,45.33
2018-03-28T13:22:27.080Z,44.53
2018-03-28T13:27:38.150Z,50.24
2018-03-28T13:30:08.813Z,52.97
2018-03-28T13:35:48.910Z,52.89
2018-03-28T13:38:18.821Z,50.95
2018-03-28T13:40:48.475Z,52.21
2018-03-28T13:43:25.769Z,52.28
2018-03-28T13:46:10.301Z,59.90
2018-03-28T13:54:11.195Z,60.23
2018-03-28T13:56:41.800Z,58.05
2018-03-28T14:01:50.231Z,55.89
2018-03-28T14:10:45.713Z,56.95
2018-03-28T14:13:18.188Z,55.28
2018-03-28T14:18:40.890Z,61.67
2018-03-28T14:28:13.335Z,59.51
2018-03-28T14:31:34.451Z,59.47
2018-03-28T14:45:16.740Z,64.55
2018-03-28T14:47:48.676Z,63.97
2018-03-28T14:50:22.701Z,64.74
2018-03-28T14:53:04.711Z,65.06
2018-03-28T14:55:48.927Z,65.67
2018-03-28T15:04:06.645Z,69.28
2018-03-28T15:10:12.834Z,72.88
2018-03-28T15:15:20.475Z,73.97
2018-03-28T15:27:36.443Z,77.47
2018-03-28T15:35:40.633Z,77.59
2018-03-28T15:38:18.216Z,77.48
2018-03-28T15:40:52.904Z,77.62
2018-03-28T15:46:19.163Z,77.34
2018-03-28T15:53:59.414Z,78.61
2018-03-28T15:59:43.213Z,77.41
2018-03-28T16:05:18.500Z,77.26
2018-03-28T16:07:49.707Z,77.57
2018-03-28T16:10:19.704Z,77.22
2018-03-28T16:12:54.468Z,77.58
2018-03-28T16:15:32.326Z,77.96
2018-03-28T16:18:02.771Z,78.99
2018-03-28T16:20:33.302Z,78.77
2018-03-28T16:31:51.086Z,79.27
2018-03-28T16:34:20.954Z,79.48
2018-03-28T16:36:51.024Z,79.93
2018-03-28T16:39:23.084Z,79.88
2018-03-28T16:41:57.082Z,79.74
2018-03-28T16:44:26.994Z,80.04
2018-03-28T16:49:32.634Z,80.75
2018-03-28T16:52:02.682Z,80.95
2018-03-28T16:54:34.345Z,81.36
2018-03-28T16:57:04.466Z,81.78
2018-03-28T16:59:34.110Z,82.46
2018-03-28T17:02:04.019Z,82.75
2018-03-28T17:04:34.209Z,83.82
2018-03-28T17:07:05.626Z,84.34
2018-03-28T17:09:35.601Z,84.79
2018-03-28T17:12:09.080Z,84.96
2018-03-28T17:14:40.487Z,85.15
2018-03-28T17:17:10.605Z,85.89
2018-03-28T17:19:40.598Z,86.19
2018-03-28T17:22:10.827Z,86.62
2018-03-28T17:24:41.178Z,86.92
2018-03-28T17:27:11.869Z,87.16
2018-03-28T17:29:41.852Z,87.32
2018-03-28T17:32:14.074Z,87.44
2018-03-28T17:34:44.199Z,87.37
2018-03-28T17:37:14.124Z,87.63
2018-03-28T17:39:43.822Z,87.30
2018-03-28T17:42:13.956Z,87.30
2018-03-28T17:44:43.958Z,87.57
2018-03-28T17:47:14.200Z,87.70
2018-03-28T17:49:44.267Z,88.16
2018-03-28T17:52:14.234Z,88.48
2018-03-28T17:57:18.241Z,88.66
2018-03-28T17:59:52.025Z,88.96
2018-03-28T18:02:22.149Z,89.04
2018-03-28T18:04:52.068Z,89.14
2018-03-28T18:07:22.180Z,89.03
2018-03-28T18:09:52.461Z,89.29
2018-03-28T18:12:22.436Z,89.47
2018-03-28T18:14:52.554Z,89.63
2018-03-28T18:17:23.061Z,89.58
2018-03-28T18:19:53.816Z,89.64
2018-03-28T18:22:23.661Z,89.58
2018-03-28T18:24:53.540Z,89.82
2018-03-28T18:27:23.370Z,90.00
2018-03-28T18:29:54.093Z,90.64
2018-03-28T18:32:24.736Z,90.94
2018-03-28T18:34:54.593Z,90.52
2018-03-28T18:37:24.659Z,90.91
2018-03-28T18:40:07.107Z,91.59
2018-03-28T18:42:39.006Z,91.92
2018-03-28T18:45:09.004Z,91.65
2018-03-28T18:47:39.238Z,91.87
2018-03-28T18:50:09.235Z,92.22
2018-03-28T18:52:39.291Z,92.69
2018-03-28T18:55:09.522Z,93.09
2018-03-28T18:57:39.691Z,93.39
2018-03-28T19:00:09.624Z,93.64
2018-03-28T19:02:39.654Z,94.07
2018-03-28T19:05:09.527Z,94.73
2018-03-28T19:07:39.423Z,95.19
2018-03-28T19:10:09.275Z,95.06
2018-03-28T19:12:39.112Z,95.31
2018-03-28T19:15:08.980Z,95.56
2018-03-28T19:17:38.833Z,95.95
2018-03-28T19:20:08.684Z,95.32
2018-03-28T19:22:38.557Z,95.61
2018-03-28T19:25:08.400Z,96.12
2018-03-28T19:27:38.271Z,96.68
2018-03-28T19:30:08.240Z,97.06
2018-03-28T19:32:38.085Z,97.33
2018-03-28T19:35:08.023Z,97.68
2018-03-28T19:37:37.896Z,97.98
2018-03-28T19:40:07.740Z,98.24
2018-03-28T19:42:37.704Z,98.49
2018-03-28T19:45:07.606Z,98.55
2018-03-28T19:47:37.468Z,98.65
2018-03-28T19:50:07.381Z,98.67
2018-03-28T19:52:37.242Z,98.71
2018-03-28T19:55:06.612Z,98.86
2018-03-28T19:57:36.458Z,99.05
2018-03-28T20:00:06.426Z,98.83
2018-03-28T20:02:36.272Z,98.46
2018-03-28T20:05:06.941Z,98.23
2018-03-28T20:07:36.812Z,98.45
2018-03-28T20:10:06.649Z,98.59
2018-03-28T20:12:36.766Z,98.79
2018-03-28T20:15:06.865Z,98.99
2018-03-28T20:17:36.757Z,99.17
2018-03-28T20:20:06.658Z,99.41
2018-03-28T20:22:36.571Z,99.72
2018-03-28T20:25:06.630Z,99.96
2018-03-28T20:27:36.485Z,100.00
2018-03-28T20:30:06.439Z,100.00
2018-03-28T20:32:36.375Z,100.00
2018-03-28T20:35:06.285Z,100.00
2018-03-28T20:37:36.480Z,100.00
2018-03-28T20:40:06.586Z,100.00
2018-03-28T20:42:36.477Z,100.00
2018-03-28T20:45:06.322Z,100.00
2018-03-28T20:47:36.176Z,100.00
2018-03-28T20:50:05.893Z,100.00
2018-03-28T20:52:35.794Z,100.00
2018-03-28T20:55:05.854Z,100.00
2018-03-28T20:57:35.386Z,100.00
2018-03-28T21:00:04.872Z,100.00
2018-03-28T21:02:35.228Z,100.00
2018-03-28T21:05:04.967Z,100.00
2018-03-28T21:07:51.353Z,100.00
2018-03-28T21:10:27.628Z,100.00
2018-03-28T21:12:57.910Z,100.00
2018-03-28T21:15:27.803Z,100.00
2018-03-28T21:17:57.985Z,100.00
2018-03-28T21:20:28.076Z,100.00
2018-03-28T21:22:58.592Z,100.00
2018-03-28T21:25:28.761Z,100.00
2018-03-28T21:27:58.816Z,100.00
2018-03-28T21:30:28.381Z,100.00
2018-03-28T21:32:58.410Z,100.00
2018-03-28T21:35:28.440Z,100.00
2018-03-28T21:37:58.328Z,100.00
2018-03-28T21:40:36.505Z,100.00
2018-03-28T21:43:08.705Z,100.00
2018-03-28T21:45:38.788Z,100.00
2018-03-28T21:48:08.604Z,100.00
2018-03-28T21:50:38.716Z,100.00
2018-03-28T21:53:08.682Z,100.00
2018-03-28T21:55:38.651Z,100.00
2018-03-28T21:58:09.077Z,100.00
2018-03-28T22:00:39.041Z,100.00
2018-03-28T22:03:08.913Z,100.00
2018-03-28T22:05:38.964Z,100.00
2018-03-28T22:08:08.841Z,100.00
2018-03-28T22:10:38.612Z,100.00
2018-03-28T22:13:08.551Z,100.00
2018-03-28T22:15:38.494Z,100.00
2018-03-28T22:18:08.493Z,100.00
2018-03-28T22:20:38.371Z,100.00
2018-03-28T22:23:08.311Z,100.00
2018-03-28T22:25:38.194Z,100.00
2018-03-28T22:28:08.264Z,100.00
2018-03-28T22:30:38.158Z,100.00
2018-03-28T22:33:08.077Z,100.00
2018-03-28T22:35:38.183Z,100.00
2018-03-28T22:38:08.268Z,100.00
2018-03-28T22:40:38.174Z,100.00
2018-03-28T22:43:08.169Z,100.00
2018-03-28T22:45:38.192Z,100.00
2018-03-28T22:48:08.353Z,100.00
2018-03-28T22:50:38.293Z,100.00
2018-03-28T22:53:08.229Z,100.00
2018-03-28T22:55:38.306Z,100.00
2018-03-28T22:58:09.228Z,100.00
2018-03-28T23:00:39.161Z,100.00
2018-03-28T23:03:09.081Z,100.00
2018-03-28T23:05:38.996Z,100.00
2018-03-28T23:08:08.976Z,100.00
2018-03-28T23:10:44.503Z,100.00
2018-03-28T23:13:19.975Z,100.00
2018-03-28T23:15:49.880Z,100.00
2018-03-28T23:18:19.840Z,100.00
2018-03-28T23:20:49.800Z,100.00
2018-03-28T23:23:19.709Z,100.00
2018-03-28T23:25:49.644Z,100.00
2018-03-28T23:28:19.610Z,100.00
2018-03-28T23:30:49.622Z,100.00
2018-03-28T23:33:19.548Z,100.00
2018-03-28T23:35:49.436Z,100.00
2018-03-28T23:38:19.327Z,100.00
2018-03-28T23:40:49.243Z,100.00
2018-03-28T23:43:20.046Z,100.00
2018-03-28T23:45:49.991Z,100.00
2018-03-28T23:48:19.971Z,100.00
2018-03-28T23:50:50.201Z,100.00
2018-03-28T23:53:20.197Z,100.00
2018-03-28T23:55:50.218Z,100.00
2018-03-28T23:58:20.149Z,100.00
